createdAt,value
2023-04-19T04:49:43.785Z,6.13
2023-04-19T04:54:46.559Z,5.63
2023-04-19T04:59:49.356Z,5.87
2023-04-19T05:04:52.269Z,5.67
2023-04-19T05:09:55.188Z,5.97
2023-04-19T05:14:58.008Z,5.50
2023-04-19T05:20:00.925Z,7.27
2023-04-19T05:25:03.865Z,6.77
2023-04-19T05:30:07.483Z,6.93
2023-04-19T05:35:11.247Z,6.00
2023-04-19T05:40:14.062Z,5.93
2023-04-19T05:45:18.918Z,4.77
2023-04-19T05:50:21.732Z,5.10
2023-04-19T05:55:24.802Z,3.50
2023-04-19T06:00:28.525Z,3.33
2023-04-19T06:05:31.429Z,3.13
2023-04-19T06:10:49.046Z,2.90
2023-04-19T06:15:57.115Z,2.10
2023-04-19T06:20:59.892Z,1.87
2023-04-19T06:26:02.691Z,1.63
2023-04-19T06:31:05.844Z,1.70
2023-04-19T06:36:08.961Z,1.70
2023-04-19T06:41:11.888Z,1.60
2023-04-19T06:46:15.926Z,1.50
2023-04-19T06:51:18.796Z,2.13
2023-04-19T06:56:42.069Z,2.33
2023-04-19T07:01:45.745Z,2.23
2023-04-19T07:06:49.992Z,2.07
2023-04-19T07:11:52.962Z,2.20
2023-04-19T07:16:55.880Z,2.00
2023-04-19T07:21:58.653Z,1.83
2023-04-19T07:27:01.916Z,2.47
2023-04-19T07:32:05.101Z,1.60
2023-04-19T07:37:08.355Z,1.90
2023-04-19T07:42:11.120Z,1.60
2023-04-19T07:47:17.143Z,2.40
2023-04-19T07:52:22.281Z,2.17
2023-04-19T07:57:25.129Z,2.83
2023-04-19T08:02:28.224Z,2.10
2023-04-19T08:07:31.175Z,2.27
2023-04-19T08:12:39.300Z,2.13
2023-04-19T08:17:48.032Z,2.63
2023-04-19T08:22:50.911Z,1.83
2023-04-19T08:27:53.775Z,1.87
2023-04-19T08:32:57.388Z,2.37
2023-04-19T08:38:01.667Z,2.80
2023-04-19T08:43:08.419Z,2.73
2023-04-19T08:48:11.944Z,2.43
2023-04-19T08:53:24.956Z,3.20
2023-04-19T08:58:45.875Z,3.07
2023-04-19T09:04:03.294Z,2.70
2023-04-19T09:09:34.124Z,2.70
2023-04-19T09:14:57.780Z,3.63
2023-04-19T09:20:05.705Z,2.90
2023-04-19T09:30:24.175Z,2.40
2023-04-19T09:35:50.294Z,2.63
2023-04-19T09:40:53.254Z,3.27
2023-04-19T09:45:56.123Z,3.97
2023-04-19T09:51:04.962Z,3.80
2023-04-19T09:56:12.917Z,3.10
2023-04-19T10:01:17.412Z,4.63
2023-04-19T10:11:27.586Z,4.83
2023-04-19T10:16:31.616Z,3.40
2023-04-19T10:21:34.933Z,4.83
2023-04-19T10:27:12.876Z,5.80
2023-04-19T10:32:16.437Z,7.23
2023-04-19T10:37:24.382Z,6.07
2023-04-19T10:43:22.803Z,6.60
2023-04-19T10:48:33.337Z,6.57
2023-04-19T10:53:52.467Z,6.43
2023-04-19T10:59:01.616Z,6.47
2023-04-19T11:04:04.920Z,6.90
2023-04-19T11:09:10.752Z,6.93
2023-04-19T11:14:14.521Z,6.63
2023-04-19T11:19:20.781Z,6.90
2023-04-19T11:24:23.534Z,6.63
2023-04-19T11:29:26.420Z,7.67
2023-04-19T11:34:29.168Z,6.77
2023-04-19T11:39:31.917Z,8.17
2023-04-19T11:44:34.784Z,7.10
2023-04-19T11:49:37.646Z,7.10
2023-04-19T11:54:40.424Z,6.77
2023-04-19T12:00:05.903Z,7.30
2023-04-19T12:05:17.837Z,6.80
2023-04-19T12:10:20.959Z,8.07
2023-04-19T12:15:25.896Z,6.90
2023-04-19T12:20:31.558Z,7.57
2023-04-19T12:25:34.969Z,7.40
2023-04-19T12:30:37.991Z,9.17
2023-04-19T12:35:41.189Z,7.60
2023-04-19T12:40:43.934Z,8.03
2023-04-19T12:45:46.723Z,8.30
2023-04-19T12:50:49.445Z,7.63
2023-04-19T12:55:53.477Z,8.43
2023-04-19T13:00:56.555Z,8.30
2023-04-19T13:05:59.491Z,8.30
2023-04-19T13:11:07.456Z,10.00
2023-04-19T13:16:11.236Z,9.30
2023-04-19T13:21:14.666Z,9.30
2023-04-19T13:26:26.020Z,10.07
2023-04-19T13:31:29.050Z,8.83
2023-04-19T13:36:34.870Z,9.77
2023-04-19T13:41:37.697Z,9.67
2023-04-19T13:46:40.634Z,9.87
2023-04-19T13:51:50.288Z,8.80
2023-04-19T13:56:53.817Z,11.40
2023-04-19T14:01:56.891Z,9.60
2023-04-19T14:06:59.724Z,12.20
2023-04-19T14:12:04.442Z,12.10
2023-04-19T14:17:07.568Z,10.20
2023-04-19T14:22:10.387Z,9.60
2023-04-19T14:27:13.279Z,10.40
2023-04-19T14:32:25.931Z,10.90
2023-04-19T14:37:29.658Z,10.93
2023-04-19T14:42:35.319Z,11.37
2023-04-19T14:47:38.215Z,11.37
2023-04-19T14:52:41.536Z,11.07
2023-04-19T14:57:44.419Z,9.73
2023-04-19T15:02:47.294Z,10.33
2023-04-19T15:07:50.568Z,10.97
2023-04-19T15:12:53.313Z,9.20
2023-04-19T15:17:56.901Z,10.70
2023-04-19T15:23:00.077Z,9.53
2023-04-19T15:28:02.987Z,9.30
2023-04-19T15:33:05.841Z,9.97
2023-04-19T15:38:08.666Z,8.33
2023-04-19T15:43:11.495Z,9.27
2023-04-19T15:48:14.478Z,11.33
2023-04-19T15:53:17.494Z,10.73
2023-04-19T15:58:20.219Z,10.87
2023-04-19T16:03:23.167Z,11.73
2023-04-19T16:08:29.100Z,11.23
2023-04-19T16:13:34.088Z,10.30
2023-04-19T16:18:36.848Z,9.70
2023-04-19T16:23:43.295Z,8.57
2023-04-19T16:28:48.974Z,11.53
2023-04-19T16:33:51.761Z,9.90
2023-04-19T16:38:54.556Z,8.83
2023-04-19T16:43:57.371Z,9.93
2023-04-19T16:49:01.032Z,10.77
2023-04-19T16:54:03.862Z,11.57
2023-04-19T16:59:06.644Z,11.97
2023-04-19T17:04:09.599Z,12.27
2023-04-19T17:09:12.601Z,13.77
2023-04-19T17:14:15.904Z,12.40
2023-04-19T17:19:18.975Z,13.13
2023-04-19T17:24:22.924Z,13.63
2023-04-19T17:29:25.873Z,12.40
2023-04-19T17:34:28.702Z,12.57
2023-04-19T17:39:31.579Z,11.67
2023-04-19T17:44:34.346Z,11.33
2023-04-19T17:49:37.180Z,10.90
2023-04-19T17:54:41.556Z,12.63
2023-04-19T17:59:44.290Z,13.13
2023-04-19T18:04:47.903Z,13.77
2023-04-19T18:09:50.750Z,14.10
2023-04-19T18:14:53.675Z,13.97
2023-04-19T18:19:59.044Z,14.20
2023-04-19T18:25:01.861Z,13.50
2023-04-19T18:30:05.708Z,15.00
2023-04-19T18:35:10.105Z,14.23
2023-04-19T18:40:13.454Z,14.17
2023-04-19T18:45:16.903Z,14.30
2023-04-19T18:50:19.728Z,15.50
2023-04-19T18:55:22.827Z,14.67
2023-04-19T19:00:25.742Z,13.63
2023-04-19T19:05:28.809Z,17.10
2023-04-19T19:10:48.510Z,14.90
2023-04-19T19:15:54.505Z,14.40
2023-04-19T19:21:00.510Z,16.43
2023-04-19T19:26:04.012Z,14.80
2023-04-19T19:31:06.978Z,16.77
2023-04-19T19:36:09.766Z,15.33
2023-04-19T19:46:18.529Z,16.17
2023-04-19T19:51:52.345Z,17.20
2023-04-19T19:57:08.200Z,18.07
2023-04-19T20:02:07.850Z,16.83
2023-04-19T20:07:25.880Z,14.07
2023-04-19T20:12:40.977Z,14.50
2023-04-19T20:17:44.208Z,15.37
2023-04-19T20:22:47.902Z,16.67
2023-04-19T20:27:50.657Z,17.70
2023-04-19T20:32:53.768Z,16.70
2023-04-19T20:38:02.650Z,14.73
2023-04-19T20:43:08.702Z,15.10
2023-04-19T20:48:13.098Z,15.63
2023-04-19T20:53:16.020Z,16.70
2023-04-19T20:58:18.867Z,15.37
2023-04-19T21:03:23.222Z,16.67
2023-04-19T21:08:26.022Z,17.40
2023-04-19T21:13:28.814Z,18.60
2023-04-19T21:18:31.780Z,17.67
2023-04-19T21:23:34.848Z,17.30
2023-04-19T21:28:37.714Z,16.07
2023-04-19T21:33:40.626Z,15.13
2023-04-19T21:38:43.523Z,15.67
2023-04-19T21:43:46.349Z,15.10
2023-04-19T21:48:49.275Z,15.60
2023-04-19T21:53:52.133Z,15.10
2023-04-19T21:58:55.234Z,16.53
2023-04-19T22:03:58.883Z,16.47
2023-04-19T22:09:02.929Z,15.73
2023-04-19T22:14:06.280Z,14.90
2023-04-19T22:19:09.119Z,14.87
2023-04-19T22:24:11.863Z,15.13
2023-04-19T22:29:14.742Z,14.93
2023-04-19T22:34:17.698Z,14.97
2023-04-19T22:39:20.741Z,16.90
2023-04-19T22:44:23.539Z,17.47
2023-04-19T22:49:26.428Z,17.20
2023-04-19T22:54:29.204Z,15.87
2023-04-19T22:59:31.980Z,15.90
2023-04-19T23:04:41.586Z,17.73
2023-04-19T23:09:44.395Z,17.17
2023-04-19T23:14:48.483Z,17.83
2023-04-19T23:19:51.262Z,16.57
2023-04-19T23:24:54.086Z,16.37
2023-04-19T23:29:56.847Z,15.90
2023-04-19T23:34:59.752Z,15.63
2023-04-19T23:40:03.507Z,16.47
2023-04-19T23:45:07.069Z,15.43
